createdAt,value
2018-07-14T00:01:21.157Z,100968.42
2018-07-14T00:03:48.862Z,100967.86
2018-07-14T00:06:16.537Z,100964.50
2018-07-14T00:08:44.210Z,100968.55
2018-07-14T00:11:11.915Z,100958.87
2018-07-14T00:13:39.585Z,100967.16
2018-07-14T00:16:07.327Z,100967.43
2018-07-14T00:18:35.080Z,100967.11
2018-07-14T00:21:02.779Z,100968.74
2018-07-14T00:23:30.439Z,100961.45
2018-07-14T00:26:00.128Z,100971.81
2018-07-14T00:28:28.366Z,100966.90
2018-07-14T00:30:56.278Z,100967.80
2018-07-14T00:33:24.056Z,100964.89
2018-07-14T00:35:51.839Z,100971.59
2018-07-14T00:38:19.561Z,100969.39
2018-07-14T00:40:47.301Z,100970.72
2018-07-14T00:43:14.978Z,100967.34
2018-07-14T00:45:42.676Z,100970.14
2018-07-14T00:48:10.352Z,100968.24
2018-07-14T00:50:37.973Z,100967.06
2018-07-14T00:53:05.889Z,100972.52
2018-07-14T00:55:33.571Z,100975.19
2018-07-14T00:58:01.189Z,100972.19
2018-07-14T01:00:28.858Z,100971.71
2018-07-14T01:02:56.498Z,100970.66
2018-07-14T01:05:24.168Z,100972.22
2018-07-14T01:07:51.880Z,100966.23
2018-07-14T01:10:19.569Z,100964.05
2018-07-14T01:12:47.221Z,100965.00
2018-07-14T01:15:14.824Z,100963.27
2018-07-14T01:17:42.520Z,100965.97
2018-07-14T01:20:10.244Z,100971.22
2018-07-14T01:22:37.884Z,100976.72
2018-07-14T01:25:05.755Z,100972.20
2018-07-14T01:27:33.387Z,100974.58
2018-07-14T01:30:00.989Z,100968.08
2018-07-14T01:32:28.607Z,100960.91
2018-07-14T01:34:56.418Z,100964.23
2018-07-14T01:37:24.026Z,100964.52
2018-07-14T01:39:51.634Z,100961.00
2018-07-14T01:42:19.372Z,100960.64
2018-07-14T01:44:47.007Z,100960.78
2018-07-14T01:47:14.659Z,100957.99
2018-07-14T01:49:42.301Z,100970.65
2018-07-14T01:52:09.976Z,100958.13
2018-07-14T01:54:37.624Z,100965.94
2018-07-14T01:57:05.357Z,100963.29
2018-07-14T01:59:33.037Z,100960.00
2018-07-14T02:02:00.693Z,100954.28
2018-07-14T02:04:28.380Z,100947.47
2018-07-14T02:06:56.031Z,100956.02
2018-07-14T02:09:23.708Z,100952.48
2018-07-14T02:11:51.368Z,100954.03
2018-07-14T02:14:19.019Z,100954.45
2018-07-14T02:16:46.698Z,100948.06
2018-07-14T02:19:14.409Z,100949.83
2018-07-14T02:21:42.101Z,100952.80
2018-07-14T02:24:09.779Z,100950.78
2018-07-14T02:26:37.408Z,100951.14
2018-07-14T02:29:05.084Z,100948.86
2018-07-14T02:31:32.800Z,100947.48
2018-07-14T02:34:00.446Z,100943.42
2018-07-14T02:36:28.118Z,100943.83
2018-07-14T02:38:55.767Z,100942.30
2018-07-14T02:41:23.429Z,100946.41
2018-07-14T02:43:51.140Z,100940.41
2018-07-14T02:46:18.794Z,100946.23
2018-07-14T02:48:46.402Z,100945.34
2018-07-14T02:51:14.044Z,100943.18
2018-07-14T02:53:41.700Z,100941.25
2018-07-14T02:56:09.347Z,100945.80
2018-07-14T02:58:36.981Z,100948.09
2018-07-14T03:01:04.629Z,100949.44
2018-07-14T03:03:32.310Z,100954.60
2018-07-14T03:06:00.123Z,100947.81
2018-07-14T03:08:27.813Z,100949.65
2018-07-14T03:10:55.485Z,100949.81
2018-07-14T03:13:23.216Z,100948.21
2018-07-14T03:15:50.877Z,100944.64
2018-07-14T03:18:18.585Z,100938.30
2018-07-14T03:20:46.263Z,100939.56
2018-07-14T03:23:13.900Z,100944.44
2018-07-14T03:25:41.528Z,100942.11
2018-07-14T03:28:09.217Z,100938.44
2018-07-14T03:30:36.842Z,100940.23
2018-07-14T03:33:04.587Z,100943.34
2018-07-14T03:35:32.600Z,100936.95
2018-07-14T03:38:00.272Z,100936.86
2018-07-14T03:40:27.908Z,100943.97
2018-07-14T03:42:55.598Z,100940.62
2018-07-14T03:45:23.260Z,100940.78
2018-07-14T03:47:50.913Z,100936.03
2018-07-14T03:50:18.596Z,100933.07
2018-07-14T03:52:46.238Z,100934.70
2018-07-14T03:55:13.907Z,100927.09
2018-07-14T03:57:41.556Z,100916.79
2018-07-14T04:00:09.230Z,100916.39
2018-07-14T04:02:36.884Z,100914.46
2018-07-14T04:05:04.856Z,100912.37
2018-07-14T04:07:32.736Z,100918.59
2018-07-14T04:10:00.344Z,100913.80
2018-07-14T04:12:27.988Z,100912.19
2018-07-14T04:14:55.696Z,100908.33
2018-07-14T04:17:23.336Z,100907.75
2018-07-14T04:19:51.025Z,100910.84
2018-07-14T04:22:18.710Z,100906.66
2018-07-14T04:24:46.320Z,100908.80
2018-07-14T04:27:14.011Z,100900.11
2018-07-14T04:29:41.688Z,100906.60
2018-07-14T04:32:09.372Z,100908.33
2018-07-14T04:34:37.042Z,100907.55
2018-07-14T04:37:04.714Z,100904.36
2018-07-14T04:39:32.345Z,100904.41
2018-07-14T04:42:00.009Z,100903.64
2018-07-14T04:44:27.669Z,100904.64
2018-07-14T04:46:55.310Z,100904.76
2018-07-14T04:49:23.052Z,100901.86
2018-07-14T04:51:50.645Z,100912.16
2018-07-14T04:54:18.231Z,100901.45
2018-07-14T04:56:45.880Z,100906.80
2018-07-14T04:59:13.541Z,100902.06
2018-07-14T05:01:41.186Z,100907.74
2018-07-14T05:04:08.959Z,100900.09
2018-07-14T05:06:36.652Z,100897.98
2018-07-14T05:09:04.888Z,100905.05
2018-07-14T05:11:32.563Z,100902.08
2018-07-14T05:14:00.241Z,100899.16
2018-07-14T05:16:27.949Z,100899.59
2018-07-14T05:18:55.608Z,100900.31
2018-07-14T05:21:23.267Z,100900.48
2018-07-14T05:23:50.950Z,100904.56
2018-07-14T05:26:18.944Z,100895.56
2018-07-14T05:28:46.607Z,100898.59
2018-07-14T05:31:14.299Z,100895.96
2018-07-14T05:33:41.996Z,100886.15
2018-07-14T05:36:09.718Z,100887.33
2018-07-14T05:38:37.439Z,100885.03
2018-07-14T05:41:05.229Z,100879.66
2018-07-14T05:43:32.957Z,100882.52
2018-07-14T05:46:00.607Z,100883.00
2018-07-14T05:48:28.303Z,100884.14
2018-07-14T05:50:56.011Z,100883.52
2018-07-14T05:53:23.686Z,100883.60
2018-07-14T05:55:51.361Z,100880.58
2018-07-14T05:58:19.067Z,100873.56
2018-07-14T06:00:46.719Z,100881.81
2018-07-14T06:03:14.424Z,100876.97
2018-07-14T06:05:42.149Z,100878.28
2018-07-14T06:08:09.749Z,100877.96
2018-07-14T06:10:37.390Z,100875.27
2018-07-14T06:13:05.298Z,100880.68
2018-07-14T06:15:32.992Z,100877.04
2018-07-14T06:18:00.675Z,100875.27
2018-07-14T06:20:28.333Z,100875.36
2018-07-14T06:22:56.083Z,100874.26
2018-07-14T06:25:23.714Z,100877.02
2018-07-14T06:27:51.356Z,100869.88
2018-07-14T06:30:19.084Z,100874.37
2018-07-14T06:32:46.769Z,100869.55
2018-07-14T06:35:14.573Z,100865.08
2018-07-14T06:37:42.360Z,100866.98
2018-07-14T06:40:10.068Z,100863.69
2018-07-14T06:42:37.847Z,100865.47
2018-07-14T06:45:05.717Z,100864.75
2018-07-14T06:47:33.480Z,100858.97
2018-07-14T06:50:01.200Z,100859.66
2018-07-14T06:52:28.987Z,100856.73
2018-07-14T06:54:57.035Z,100854.53
2018-07-14T06:57:24.696Z,100849.55
2018-07-14T06:59:52.354Z,100846.94
2018-07-14T07:02:20.031Z,100850.48
2018-07-14T07:04:48.117Z,100848.75
2018-07-14T07:07:15.955Z,100850.95
2018-07-14T07:09:43.669Z,100849.00
2018-07-14T07:12:11.386Z,100844.20
2018-07-14T07:14:39.169Z,100841.83
2018-07-14T07:17:06.831Z,100842.25
2018-07-14T07:19:34.471Z,100839.90
2018-07-14T07:22:02.097Z,100840.16
2018-07-14T07:24:29.765Z,100840.61
2018-07-14T07:26:57.444Z,100844.86
2018-07-14T07:29:25.089Z,100846.85
2018-07-14T07:31:52.822Z,100851.59
2018-07-14T07:34:20.551Z,100849.94
2018-07-14T07:36:48.257Z,100846.56
2018-07-14T07:39:15.965Z,100845.25
2018-07-14T07:41:43.708Z,100845.17
2018-07-14T07:44:11.467Z,100841.95
2018-07-14T07:46:39.101Z,100840.53
2018-07-14T07:49:06.798Z,100843.80
2018-07-14T07:51:34.434Z,100838.37
2018-07-14T07:54:02.088Z,100835.06
2018-07-14T07:56:29.767Z,100836.84
2018-07-14T07:58:57.408Z,100834.63
2018-07-14T08:01:25.045Z,100835.44
2018-07-14T08:03:52.757Z,100834.22
2018-07-14T08:06:20.477Z,100836.59
2018-07-14T08:08:48.184Z,100832.84
2018-07-14T08:11:15.886Z,100832.94
2018-07-14T08:13:43.530Z,100834.80
2018-07-14T08:16:11.344Z,100833.98
2018-07-14T08:18:38.991Z,100827.56
2018-07-14T08:21:06.756Z,100827.81
2018-07-14T08:23:34.460Z,100831.03
2018-07-14T08:26:02.230Z,100827.44
2018-07-14T08:28:29.931Z,100830.27
2018-07-14T08:30:57.647Z,100830.20
2018-07-14T08:33:25.290Z,100824.77
2018-07-14T08:35:53.007Z,100827.75
2018-07-14T08:38:20.836Z,100824.27
2018-07-14T08:40:48.547Z,100820.37
2018-07-14T08:43:16.217Z,100821.25
2018-07-14T08:45:43.897Z,100819.69
2018-07-14T08:48:11.577Z,100811.91
2018-07-14T08:50:39.246Z,100810.45
2018-07-14T08:53:06.923Z,100810.88
2018-07-14T08:55:34.591Z,100809.83
2018-07-14T08:58:02.268Z,100804.42
2018-07-14T09:00:29.906Z,100809.32
2018-07-14T09:02:57.527Z,100802.57
2018-07-14T09:05:25.200Z,100797.50
2018-07-14T09:07:53.022Z,100800.86
2018-07-14T09:10:20.673Z,100798.50
2018-07-14T09:12:48.320Z,100789.71
2018-07-14T09:15:16.045Z,100794.70
2018-07-14T09:17:43.720Z,100787.30
2018-07-14T09:20:11.402Z,100784.80
2018-07-14T09:22:39.114Z,100784.37
2018-07-14T09:25:06.791Z,100788.80
2018-07-14T09:27:34.472Z,100784.89
2018-07-14T09:30:02.202Z,100785.39
2018-07-14T09:32:29.963Z,100786.06
2018-07-14T09:34:57.658Z,100785.41
2018-07-14T09:37:25.360Z,100788.60
2018-07-14T09:39:53.060Z,100786.11
2018-07-14T09:42:20.768Z,100780.02
2018-07-14T09:44:48.446Z,100783.31
2018-07-14T09:47:16.188Z,100780.34
2018-07-14T09:49:43.913Z,100779.64
2018-07-14T09:52:11.576Z,100786.20
2018-07-14T09:54:39.267Z,100782.19
2018-07-14T09:57:07.364Z,100774.73
2018-07-14T09:59:35.054Z,100779.30
2018-07-14T10:02:02.758Z,100772.65
2018-07-14T10:04:30.542Z,100776.88
2018-07-14T10:06:58.218Z,100779.03
2018-07-14T10:09:25.942Z,100774.05
2018-07-14T10:11:53.591Z,100768.10
2018-07-14T10:14:21.235Z,100764.88
2018-07-14T10:16:48.922Z,100772.34
2018-07-14T10:19:16.623Z,100763.72
2018-07-14T10:21:44.253Z,100761.11
2018-07-14T10:24:12.114Z,100763.70
2018-07-14T10:26:39.830Z,100762.87
2018-07-14T10:29:07.623Z,100764.03
2018-07-14T10:31:35.246Z,100756.72
2018-07-14T10:34:03.122Z,100759.98
2018-07-14T10:36:30.736Z,100751.67
2018-07-14T10:38:58.437Z,100752.23
2018-07-14T10:41:26.287Z,100747.23
2018-07-14T10:43:54.021Z,100742.56
2018-07-14T10:46:21.702Z,100743.66
2018-07-14T10:48:49.380Z,100738.54
2018-07-14T10:51:17.101Z,100725.49
2018-07-14T10:53:44.871Z,100733.33
2018-07-14T10:56:12.631Z,100730.43
2018-07-14T10:58:40.819Z,100721.43
2018-07-14T11:01:08.492Z,100722.88
2018-07-14T11:03:36.210Z,100720.88
2018-07-14T11:06:03.918Z,100724.31
2018-07-14T11:08:31.588Z,100720.20
2018-07-14T11:10:59.286Z,100718.47
2018-07-14T11:13:27.077Z,100717.66
2018-07-14T11:15:54.773Z,100713.16
2018-07-14T11:18:22.441Z,100707.47
2018-07-14T11:20:50.160Z,100710.52
2018-07-14T11:23:17.905Z,100700.44
2018-07-14T11:25:45.585Z,100714.63
2018-07-14T11:28:13.280Z,100712.27
2018-07-14T11:30:41.009Z,100706.36
2018-07-14T11:33:08.692Z,100706.14
2018-07-14T11:35:36.332Z,100708.37
2018-07-14T11:38:04.001Z,100704.85
2018-07-14T11:40:31.630Z,100711.29
2018-07-14T11:42:59.268Z,100706.87
2018-07-14T11:45:27.027Z,100711.89
2018-07-14T11:47:54.735Z,100716.92
2018-07-14T11:50:22.489Z,100715.09
2018-07-14T11:52:50.359Z,100706.55
2018-07-14T11:55:18.073Z,100703.38
2018-07-14T11:57:45.804Z,100696.46
2018-07-14T12:00:13.477Z,100703.73
2018-07-14T12:02:41.248Z,100700.34
2018-07-14T12:05:08.980Z,100700.77
2018-07-14T12:07:36.750Z,100701.50
2018-07-14T12:10:04.748Z,100703.49
2018-07-14T12:12:32.408Z,100703.30
2018-07-14T12:15:00.105Z,100707.33
2018-07-14T12:17:27.895Z,100704.09
2018-07-14T12:19:55.601Z,100703.88
2018-07-14T12:22:23.396Z,100698.86
2018-07-14T12:24:51.049Z,100710.87
2018-07-14T12:27:18.784Z,100698.86
2018-07-14T12:29:46.565Z,100704.03
2018-07-14T12:32:14.221Z,100700.94
2018-07-14T12:34:41.902Z,100707.93
2018-07-14T12:37:09.616Z,100703.00
2018-07-14T12:39:37.289Z,100703.73
2018-07-14T12:42:05.126Z,100695.92
2018-07-14T12:44:33.053Z,100700.86
2018-07-14T12:47:01.535Z,100687.33
2018-07-14T12:49:29.189Z,100691.39
2018-07-14T12:51:56.853Z,100691.68
2018-07-14T12:54:24.627Z,100696.65
2018-07-14T12:56:52.295Z,100697.48
2018-07-14T12:59:20.002Z,100690.84
2018-07-14T13:01:47.713Z,100694.22
2018-07-14T13:04:15.432Z,100691.88
2018-07-14T13:06:43.107Z,100686.98
2018-07-14T13:09:10.791Z,100687.27
2018-07-14T13:11:38.572Z,100688.84
2018-07-14T13:14:06.329Z,100683.05
2018-07-14T13:16:34.371Z,100671.27
2018-07-14T13:19:02.611Z,100667.26
2018-07-14T13:21:30.270Z,100680.19
2018-07-14T13:23:57.965Z,100667.98
2018-07-14T13:26:25.685Z,100671.77
2018-07-14T13:28:53.309Z,100670.69
2018-07-14T13:31:21.046Z,100665.07
2018-07-14T13:33:48.679Z,100653.17
2018-07-14T13:36:16.362Z,100651.84
2018-07-14T13:38:51.265Z,100661.89
2018-07-14T13:41:11.745Z,100656.67
2018-07-14T13:43:39.405Z,100654.80
2018-07-14T13:46:07.021Z,100652.83
2018-07-14T13:48:34.963Z,100653.50
2018-07-14T13:51:02.682Z,100648.69
2018-07-14T13:53:30.412Z,100652.44
2018-07-14T13:55:58.161Z,100649.23
2018-07-14T13:58:25.968Z,100644.30
2018-07-14T14:00:53.608Z,100637.89
2018-07-14T14:03:21.358Z,100636.06
2018-07-14T14:05:49.014Z,100645.48
2018-07-14T14:08:16.699Z,100636.94
2018-07-14T14:10:44.446Z,100641.05
2018-07-14T14:13:12.167Z,100639.50
2018-07-14T14:15:40.001Z,100634.16
2018-07-14T14:18:07.749Z,100636.96
2018-07-14T14:20:35.546Z,100641.70
2018-07-14T14:23:03.277Z,100641.45
2018-07-14T14:25:30.882Z,100644.84
2018-07-14T14:27:58.550Z,100638.27
2018-07-14T14:30:26.217Z,100636.21
2018-07-14T14:32:53.975Z,100638.41
2018-07-14T14:35:21.713Z,100635.08
2018-07-14T14:37:49.399Z,100628.88
2018-07-14T14:40:17.163Z,100630.47
2018-07-14T14:42:44.925Z,100623.80
2018-07-14T14:45:12.643Z,100633.82
2018-07-14T14:47:40.392Z,100628.52
2018-07-14T14:50:08.157Z,100630.72
2018-07-14T14:52:35.808Z,100626.67
2018-07-14T14:55:03.648Z,100630.37
2018-07-14T14:57:31.388Z,100618.13
2018-07-14T15:00:00.005Z,100625.44
2018-07-14T15:02:27.739Z,100629.33
2018-07-14T15:04:55.401Z,100623.44
2018-07-14T15:07:23.132Z,100628.13
2018-07-14T15:09:50.893Z,100624.75
2018-07-14T15:12:18.564Z,100627.73
2018-07-14T15:14:46.258Z,100634.67
2018-07-14T15:17:13.912Z,100625.92
2018-07-14T15:19:41.606Z,100631.98
2018-07-14T15:22:09.334Z,100628.47
2018-07-14T15:24:37.004Z,100626.63
2018-07-14T15:27:04.746Z,100622.05
2018-07-14T15:29:32.404Z,100632.31
2018-07-14T15:32:00.157Z,100627.78
2018-07-14T15:34:27.920Z,100624.94
2018-07-14T15:36:55.731Z,100628.88
2018-07-14T15:39:23.481Z,100622.30
2018-07-14T15:41:51.156Z,100627.75
2018-07-14T15:44:18.864Z,100636.09
2018-07-14T15:46:46.567Z,100630.67
2018-07-14T15:49:14.578Z,100627.10
2018-07-14T15:51:42.356Z,100630.32
2018-07-14T15:54:10.089Z,100624.88
2018-07-14T15:56:37.830Z,100616.54
2018-07-14T15:59:05.545Z,100615.03
2018-07-14T16:01:33.344Z,100623.02
2018-07-14T16:04:01.036Z,100617.09
2018-07-14T16:06:28.801Z,100620.31
2018-07-14T16:08:56.536Z,100623.06
2018-07-14T16:11:24.268Z,100617.98
2018-07-14T16:13:51.973Z,100620.70
2018-07-14T16:16:19.721Z,100618.67
2018-07-14T16:18:47.542Z,100618.17
2018-07-14T16:21:15.250Z,100620.72
2018-07-14T16:23:42.973Z,100617.49
2018-07-14T16:26:10.631Z,100612.72
2018-07-14T16:28:38.324Z,100618.49
2018-07-14T16:31:06.021Z,100619.33
2018-07-14T16:33:34.585Z,100618.98
2018-07-14T16:36:02.557Z,100618.65
2018-07-14T16:38:30.373Z,100621.20
2018-07-14T16:40:58.212Z,100622.90
2018-07-14T16:43:25.957Z,100626.11
2018-07-14T16:45:53.667Z,100624.42
2018-07-14T16:48:21.347Z,100623.37
2018-07-14T16:50:49.117Z,100625.08
2018-07-14T16:53:16.806Z,100621.50
2018-07-14T16:55:44.523Z,100622.84
2018-07-14T16:58:12.269Z,100622.01
2018-07-14T17:00:40.073Z,100627.41
2018-07-14T17:03:07.839Z,100621.61
2018-07-14T17:05:35.517Z,100623.78
2018-07-14T17:08:03.206Z,100622.91
2018-07-14T17:10:31.244Z,100619.86
2018-07-14T17:12:58.907Z,100619.17
2018-07-14T17:15:27.589Z,100628.62
2018-07-14T17:17:55.289Z,100629.94
2018-07-14T17:20:22.994Z,100631.27
2018-07-14T17:22:50.717Z,100638.37
2018-07-14T17:25:18.459Z,100630.25
2018-07-14T17:27:46.242Z,100636.61
2018-07-14T17:30:13.960Z,100635.94
2018-07-14T17:32:41.646Z,100639.62
2018-07-14T17:35:09.476Z,100640.52
2018-07-14T17:37:37.140Z,100642.55
2018-07-14T17:40:05.021Z,100638.14
2018-07-14T17:42:32.733Z,100642.02
2018-07-14T17:45:00.431Z,100641.31
2018-07-14T17:47:28.153Z,100643.13
2018-07-14T17:49:55.818Z,100641.92
2018-07-14T17:52:23.567Z,100644.27
2018-07-14T17:54:51.286Z,100639.68
2018-07-14T17:57:19.024Z,100645.41
2018-07-14T17:59:46.718Z,100645.69
2018-07-14T18:02:14.488Z,100643.27
2018-07-14T18:04:42.381Z,100638.84
2018-07-14T18:07:10.074Z,100639.79
2018-07-14T18:09:37.763Z,100648.18
2018-07-14T18:12:05.501Z,100651.80
2018-07-14T18:14:33.203Z,100648.86
2018-07-14T18:17:00.905Z,100653.05
2018-07-14T18:19:28.656Z,100653.50
2018-07-14T18:21:56.392Z,100654.13
2018-07-14T18:24:24.115Z,100655.97
2018-07-14T18:26:51.865Z,100655.97
2018-07-14T18:29:19.614Z,100658.30
2018-07-14T18:31:47.356Z,100654.51
2018-07-14T18:34:15.471Z,100654.08
2018-07-14T18:36:43.825Z,100656.06
2018-07-14T18:39:11.548Z,100653.13
2018-07-14T18:41:39.267Z,100657.65
2018-07-14T18:44:06.970Z,100662.86
2018-07-14T18:46:35.117Z,100663.25
2018-07-14T18:49:02.856Z,100658.72
2018-07-14T18:51:30.674Z,100655.60
2018-07-14T18:53:58.664Z,100653.02
2018-07-14T18:56:26.775Z,100657.61
2018-07-14T18:58:54.593Z,100655.31
2018-07-14T19:01:22.314Z,100660.95
2018-07-14T19:03:50.246Z,100665.06
2018-07-14T19:06:17.946Z,100668.78
2018-07-14T19:08:45.660Z,100671.78
2018-07-14T19:11:13.368Z,100676.62
2018-07-14T19:13:41.081Z,100673.16
2018-07-14T19:16:08.742Z,100674.44
2018-07-14T19:18:36.455Z,100675.32
2018-07-14T19:21:04.495Z,100671.98
2018-07-14T19:23:32.286Z,100675.73
2018-07-14T19:26:00.091Z,100675.95
2018-07-14T19:28:27.757Z,100669.06
2018-07-14T19:30:55.538Z,100673.34
2018-07-14T19:33:23.285Z,100677.24
2018-07-14T19:35:51.525Z,100678.80
2018-07-14T19:38:19.218Z,100681.50
2018-07-14T19:40:46.934Z,100680.02
2018-07-14T19:43:14.641Z,100673.81
2018-07-14T19:45:42.372Z,100677.23
2018-07-14T19:48:10.132Z,100679.93
2018-07-14T19:50:37.810Z,100679.36
2018-07-14T19:53:05.536Z,100675.88
2018-07-14T19:55:35.665Z,100675.45
2018-07-14T19:58:00.981Z,100682.97
2018-07-14T20:00:28.733Z,100683.27
2018-07-14T20:02:56.441Z,100686.58
2018-07-14T20:05:24.308Z,100684.41
2018-07-14T20:07:52.009Z,100686.45
2018-07-14T20:10:19.716Z,100684.36
2018-07-14T20:12:47.459Z,100675.62
2018-07-14T20:15:15.286Z,100687.77
2018-07-14T20:17:42.962Z,100691.02
2018-07-14T20:20:10.856Z,100689.28
2018-07-14T20:22:39.038Z,100684.11
2018-07-14T20:25:06.805Z,100694.19
2018-07-14T20:27:34.544Z,100696.43
2018-07-14T20:30:02.341Z,100697.32
2018-07-14T20:32:29.994Z,100690.00
2018-07-14T20:34:57.712Z,100692.34
2018-07-14T20:37:25.445Z,100689.56
2018-07-14T20:39:53.212Z,100688.98
2018-07-14T20:42:20.890Z,100696.69
2018-07-14T20:44:48.622Z,100695.96
2018-07-14T20:47:16.446Z,100698.66
2018-07-14T20:49:44.170Z,100690.73
2018-07-14T20:52:11.862Z,100700.01
2018-07-14T20:54:39.704Z,100701.61
2018-07-14T20:57:07.390Z,100708.06
2018-07-14T20:59:35.054Z,100712.89
2018-07-14T21:02:02.773Z,100706.30
2018-07-14T21:04:30.494Z,100711.29
2018-07-14T21:06:58.215Z,100722.31
2018-07-14T21:09:25.912Z,100717.19
2018-07-14T21:11:53.557Z,100722.74
2018-07-14T21:14:21.341Z,100728.81
2018-07-14T21:16:48.985Z,100732.42
2018-07-14T21:19:16.813Z,100726.81
2018-07-14T21:21:44.485Z,100727.89
2018-07-14T21:24:12.167Z,100729.53
2018-07-14T21:26:39.889Z,100735.92
2018-07-14T21:29:07.601Z,100741.47
2018-07-14T21:31:35.273Z,100740.17
2018-07-14T21:34:02.937Z,100737.78
2018-07-14T21:36:30.603Z,100732.49
2018-07-14T21:38:58.281Z,100736.19
2018-07-14T21:41:25.957Z,100735.89
2018-07-14T21:43:54.645Z,100739.95
2018-07-14T21:46:22.310Z,100734.28
2018-07-14T21:48:50.018Z,100732.25
2018-07-14T21:51:17.720Z,100734.42
2018-07-14T21:53:45.411Z,100730.94
2018-07-14T21:56:13.106Z,100741.93
2018-07-14T21:58:40.763Z,100744.67
2018-07-14T22:01:14.082Z,100737.38
2018-07-14T22:03:41.876Z,100740.81
2018-07-14T22:06:09.567Z,100740.52
2018-07-14T22:08:37.231Z,100741.42
2018-07-14T22:11:04.915Z,100740.88
2018-07-14T22:13:32.673Z,100743.77
2018-07-14T22:16:00.358Z,100740.80
2018-07-14T22:18:28.026Z,100745.02
2018-07-14T22:20:55.744Z,100743.33
2018-07-14T22:23:23.425Z,100744.28
2018-07-14T22:25:51.124Z,100743.81
2018-07-14T22:28:18.790Z,100746.22
2018-07-14T22:30:46.602Z,100740.69
2018-07-14T22:33:14.324Z,100744.41
2018-07-14T22:35:42.006Z,100747.94
2018-07-14T22:38:09.716Z,100744.32
2018-07-14T22:40:37.399Z,100747.45
2018-07-14T22:43:05.393Z,100746.14
2018-07-14T22:45:33.034Z,100746.67
2018-07-14T22:48:00.722Z,100748.86
2018-07-14T22:50:28.443Z,100752.29
2018-07-14T22:52:56.131Z,100747.80
2018-07-14T22:55:23.756Z,100754.05
2018-07-14T22:57:51.386Z,100748.87
2018-07-14T23:00:19.071Z,100756.66
2018-07-14T23:02:46.694Z,100756.56
2018-07-14T23:05:14.329Z,100755.48
2018-07-14T23:07:41.981Z,100760.60
2018-07-14T23:10:09.694Z,100760.17
2018-07-14T23:12:37.346Z,100759.85
2018-07-14T23:15:05.093Z,100758.20
2018-07-14T23:17:32.776Z,100768.91
2018-07-14T23:20:00.434Z,100768.22
2018-07-14T23:22:28.168Z,100766.39
2018-07-14T23:24:55.851Z,100768.06
2018-07-14T23:27:23.912Z,100767.78
2018-07-14T23:29:51.729Z,100772.23
2018-07-14T23:32:19.414Z,100775.07
2018-07-14T23:34:47.097Z,100766.97
2018-07-14T23:37:14.848Z,100768.01
2018-07-14T23:39:42.540Z,100768.32
2018-07-14T23:42:10.146Z,100765.78
2018-07-14T23:44:37.816Z,100773.34
2018-07-14T23:47:05.547Z,100767.97
2018-07-14T23:49:33.187Z,100771.12
2018-07-14T23:52:00.837Z,100770.44
2018-07-14T23:54:28.500Z,100765.89
2018-07-14T23:56:56.114Z,100771.94
2018-07-14T23:59:23.783Z,100769.51
